sensor_id;sensor_type;location;lat;lon;timestamp;temperature;humidity
37702;DHT22;23548;51.196;6.838;2023-12-20T00:00:52;7.80;99.90
37702;DHT22;23548;51.196;6.838;2023-12-20T00:03:18;7.80;99.90
37702;DHT22;23548;51.196;6.838;2023-12-20T00:05:44;7.70;99.90
37702;DHT22;23548;51.196;6.838;2023-12-20T00:08:09;7.70;99.90
37702;DHT22;23548;51.196;6.838;2023-12-20T00:10:35;7.70;99.90
37702;DHT22;23548;51.196;6.838;2023-12-20T00:13:01;7.60;99.90
37702;DHT22;23548;51.196;6.838;2023-12-20T00:15:27;7.60;99.90
37702;DHT22;23548;51.196;6.838;2023-12-20T00:17:52;7.60;99.90
37702;DHT22;23548;51.196;6.838;2023-12-20T00:20:18;7.60;99.90
37702;DHT22;23548;51.196;6.838;2023-12-20T00:22:44;7.60;99.90
37702;DHT22;23548;51.196;6.838;2023-12-20T00:25:09;7.50;99.90
37702;DHT22;23548;51.196;6.838;2023-12-20T00:27:35;7.50;99.90
37702;DHT22;23548;51.196;6.838;2023-12-20T00:30:01;7.50;99.90
37702;DHT22;23548;51.196;6.838;2023-12-20T00:32:26;7.50;99.90
37702;DHT22;23548;51.196;6.838;2023-12-20T00:34:52;7.60;99.90
37702;DHT22;23548;51.196;6.838;2023-12-20T00:37:18;7.60;99.90
37702;DHT22;23548;51.196;6.838;2023-12-20T00:39:43;7.50;99.90
37702;DHT22;23548;51.196;6.838;2023-12-20T00:42:09;7.60;99.90
37702;DHT22;23548;51.196;6.838;2023-12-20T00:44:35;7.60;99.90
37702;DHT22;23548;51.196;6.838;2023-12-20T00:47:00;7.60;99.90
37702;DHT22;23548;51.196;6.838;2023-12-20T00:49:27;7.50;99.90
37702;DHT22;23548;51.196;6.838;2023-12-20T00:51:52;7.40;99.90
37702;DHT22;23548;51.196;6.838;2023-12-20T00:54:18;7.30;99.90
37702;DHT22;23548;51.196;6.838;2023-12-20T00:56:44;7.20;99.90
37702;DHT22;23548;51.196;6.838;2023-12-20T00:59:09;7.30;99.90
37702;DHT22;23548;51.196;6.838;2023-12-20T01:01:36;7.40;99.90
37702;DHT22;23548;51.196;6.838;2023-12-20T01:04:02;7.40;99.90
37702;DHT22;23548;51.196;6.838;2023-12-20T01:06:28;7.50;99.90
37702;DHT22;23548;51.196;6.838;2023-12-20T01:08:54;7.60;99.90
37702;DHT22;23548;51.196;6.838;2023-12-20T01:11:20;7.60;99.90
37702;DHT22;23548;51.196;6.838;2023-12-20T01:13:45;7.60;99.90
37702;DHT22;23548;51.196;6.838;2023-12-20T01:16:12;7.60;99.90
37702;DHT22;23548;51.196;6.838;2023-12-20T01:18:38;7.60;99.90
37702;DHT22;23548;51.196;6.838;2023-12-20T01:21:05;7.50;99.90
37702;DHT22;23548;51.196;6.838;2023-12-20T01:23:31;7.50;99.90
37702;DHT22;23548;51.196;6.838;2023-12-20T01:25:58;7.60;99.90
37702;DHT22;23548;51.196;6.838;2023-12-20T01:28:26;7.50;99.90
37702;DHT22;23548;51.196;6.838;2023-12-20T01:30:51;7.50;99.90
37702;DHT22;23548;51.196;6.838;2023-12-20T01:33:18;7.40;99.90
37702;DHT22;23548;51.196;6.838;2023-12-20T01:35:43;7.40;99.90
37702;DHT22;23548;51.196;6.838;2023-12-20T01:38:09;7.40;99.90
37702;DHT22;23548;51.196;6.838;2023-12-20T01:40:35;7.40;99.90
37702;DHT22;23548;51.196;6.838;2023-12-20T01:43:09;7.50;99.90
37702;DHT22;23548;51.196;6.838;2023-12-20T01:45:37;7.40;99.90
37702;DHT22;23548;51.196;6.838;2023-12-20T01:48:04;7.40;99.90
37702;DHT22;23548;51.196;6.838;2023-12-20T01:50:31;7.40;99.90
37702;DHT22;23548;51.196;6.838;2023-12-20T01:52:59;7.40;99.90
37702;DHT22;23548;51.196;6.838;2023-12-20T01:55:28;7.40;99.90
37702;DHT22;23548;51.196;6.838;2023-12-20T01:57:56;7.30;99.90
37702;DHT22;23548;51.196;6.838;2023-12-20T02:00:23;7.20;99.90
37702;DHT22;23548;51.196;6.838;2023-12-20T02:06:04;7.00;99.90
37702;DHT22;23548;51.196;6.838;2023-12-20T02:08:30;6.90;99.90
37702;DHT22;23548;51.196;6.838;2023-12-20T02:10:56;6.80;99.90
37702;DHT22;23548;51.196;6.838;2023-12-20T02:13:22;6.80;99.90
37702;DHT22;23548;51.196;6.838;2023-12-20T02:15:48;6.80;99.90
37702;DHT22;23548;51.196;6.838;2023-12-20T02:18:14;6.70;99.90
37702;DHT22;23548;51.196;6.838;2023-12-20T02:20:42;6.60;99.90
37702;DHT22;23548;51.196;6.838;2023-12-20T02:23:08;6.50;99.90
37702;DHT22;23548;51.196;6.838;2023-12-20T02:25:33;6.50;99.90
37702;DHT22;23548;51.196;6.838;2023-12-20T02:27:59;6.50;99.90
37702;DHT22;23548;51.196;6.838;2023-12-20T02:30:25;6.50;99.90
37702;DHT22;23548;51.196;6.838;2023-12-20T02:32:51;6.40;99.90
37702;DHT22;23548;51.196;6.838;2023-12-20T02:35:17;6.40;99.90
37702;DHT22;23548;51.196;6.838;2023-12-20T02:37:43;6.30;99.90
37702;DHT22;23548;51.196;6.838;2023-12-20T02:40:09;6.30;99.90
37702;DHT22;23548;51.196;6.838;2023-12-20T02:42:35;6.30;99.90
37702;DHT22;23548;51.196;6.838;2023-12-20T02:45:01;6.40;99.90
37702;DHT22;23548;51.196;6.838;2023-12-20T02:47:27;6.40;99.90
37702;DHT22;23548;51.196;6.838;2023-12-20T02:49:55;6.50;99.90
37702;DHT22;23548;51.196;6.838;2023-12-20T02:52:21;6.60;99.90
37702;DHT22;23548;51.196;6.838;2023-12-20T02:54:47;6.60;99.90
37702;DHT22;23548;51.196;6.838;2023-12-20T02:57:13;6.60;99.90
37702;DHT22;23548;51.196;6.838;2023-12-20T03:03:00;6.60;99.90
37702;DHT22;23548;51.196;6.838;2023-12-20T03:05:26;6.60;99.90
37702;DHT22;23548;51.196;6.838;2023-12-20T03:07:52;6.60;99.90
37702;DHT22;23548;51.196;6.838;2023-12-20T03:10:18;6.50;99.90
37702;DHT22;23548;51.196;6.838;2023-12-20T03:12:44;6.60;99.90
37702;DHT22;23548;51.196;6.838;2023-12-20T03:15:10;6.60;99.90
37702;DHT22;23548;51.196;6.838;2023-12-20T03:17:36;6.60;99.90
37702;DHT22;23548;51.196;6.838;2023-12-20T03:20:02;6.50;99.90
37702;DHT22;23548;51.196;6.838;2023-12-20T03:22:28;6.60;99.90
37702;DHT22;23548;51.196;6.838;2023-12-20T03:24:53;6.50;99.90
37702;DHT22;23548;51.196;6.838;2023-12-20T03:27:19;6.60;99.90
37702;DHT22;23548;51.196;6.838;2023-12-20T03:29:45;6.60;99.90
37702;DHT22;23548;51.196;6.838;2023-12-20T03:32:11;6.60;99.90
37702;DHT22;23548;51.196;6.838;2023-12-20T03:34:36;6.50;99.90
37702;DHT22;23548;51.196;6.838;2023-12-20T03:37:02;6.40;99.90
37702;DHT22;23548;51.196;6.838;2023-12-20T03:39:28;6.40;99.90
37702;DHT22;23548;51.196;6.838;2023-12-20T03:41:54;6.40;99.90
37702;DHT22;23548;51.196;6.838;2023-12-20T03:44:20;6.40;99.90
37702;DHT22;23548;51.196;6.838;2023-12-20T03:46:46;6.40;99.90
37702;DHT22;23548;51.196;6.838;2023-12-20T03:49:12;6.30;99.90
37702;DHT22;23548;51.196;6.838;2023-12-20T03:51:37;6.30;99.90
37702;DHT22;23548;51.196;6.838;2023-12-20T03:54:03;6.20;99.90
37702;DHT22;23548;51.196;6.838;2023-12-20T03:56:29;6.10;99.90
37702;DHT22;23548;51.196;6.838;2023-12-20T03:58:54;6.10;99.90
37702;DHT22;23548;51.196;6.838;2023-12-20T04:01:20;6.00;99.90
37702;DHT22;23548;51.196;6.838;2023-12-20T04:03:46;6.00;99.90
37702;DHT22;23548;51.196;6.838;2023-12-20T04:06:19;6.00;99.90
37702;DHT22;23548;51.196;6.838;2023-12-20T04:08:45;5.90;99.90
37702;DHT22;23548;51.196;6.838;2023-12-20T04:11:11;6.00;99.90
37702;DHT22;23548;51.196;6.838;2023-12-20T04:13:37;6.00;99.90
37702;DHT22;23548;51.196;6.838;2023-12-20T04:16:03;6.00;99.90
37702;DHT22;23548;51.196;6.838;2023-12-20T04:18:28;6.00;99.90
37702;DHT22;23548;51.196;6.838;2023-12-20T04:20:54;5.90;99.90
37702;DHT22;23548;51.196;6.838;2023-12-20T04:23:20;5.90;99.90
37702;DHT22;23548;51.196;6.838;2023-12-20T04:25:45;5.90;99.90
37702;DHT22;23548;51.196;6.838;2023-12-20T04:28:12;5.90;99.90
37702;DHT22;23548;51.196;6.838;2023-12-20T04:30:37;5.90;99.90
37702;DHT22;23548;51.196;6.838;2023-12-20T04:33:03;5.90;99.90
37702;DHT22;23548;51.196;6.838;2023-12-20T04:35:29;5.90;99.90
37702;DHT22;23548;51.196;6.838;2023-12-20T04:37:55;5.90;99.90
37702;DHT22;23548;51.196;6.838;2023-12-20T04:40:21;5.90;99.90
37702;DHT22;23548;51.196;6.838;2023-12-20T04:42:47;5.90;99.90
37702;DHT22;23548;51.196;6.838;2023-12-20T04:45:12;6.00;99.90
37702;DHT22;23548;51.196;6.838;2023-12-20T04:47:42;6.00;99.90
37702;DHT22;23548;51.196;6.838;2023-12-20T04:50:08;6.10;99.90
37702;DHT22;23548;51.196;6.838;2023-12-20T04:52:35;6.20;99.90
37702;DHT22;23548;51.196;6.838;2023-12-20T04:55:01;6.20;99.90
37702;DHT22;23548;51.196;6.838;2023-12-20T04:57:26;6.20;99.90
37702;DHT22;23548;51.196;6.838;2023-12-20T04:59:52;6.30;99.90
37702;DHT22;23548;51.196;6.838;2023-12-20T05:02:18;6.30;99.90
37702;DHT22;23548;51.196;6.838;2023-12-20T05:04:43;6.30;99.90
37702;DHT22;23548;51.196;6.838;2023-12-20T05:07:09;6.30;99.90
37702;DHT22;23548;51.196;6.838;2023-12-20T05:09:35;6.20;99.90
37702;DHT22;23548;51.196;6.838;2023-12-20T05:12:01;6.20;99.90
37702;DHT22;23548;51.196;6.838;2023-12-20T05:14:27;6.10;99.90
37702;DHT22;23548;51.196;6.838;2023-12-20T05:16:52;6.10;99.90
37702;DHT22;23548;51.196;6.838;2023-12-20T05:19:18;6.10;99.90
37702;DHT22;23548;51.196;6.838;2023-12-20T05:21:44;6.10;99.90
37702;DHT22;23548;51.196;6.838;2023-12-20T05:24:09;6.20;99.90
37702;DHT22;23548;51.196;6.838;2023-12-20T05:26:35;6.20;99.90
37702;DHT22;23548;51.196;6.838;2023-12-20T05:29:01;6.10;99.90
37702;DHT22;23548;51.196;6.838;2023-12-20T05:31:27;6.10;99.90
37702;DHT22;23548;51.196;6.838;2023-12-20T05:33:53;6.10;99.90
37702;DHT22;23548;51.196;6.838;2023-12-20T05:36:18;6.20;99.90
37702;DHT22;23548;51.196;6.838;2023-12-20T05:38:44;6.20;99.90
37702;DHT22;23548;51.196;6.838;2023-12-20T05:41:10;6.20;99.90
37702;DHT22;23548;51.196;6.838;2023-12-20T05:43:35;6.20;99.90
37702;DHT22;23548;51.196;6.838;2023-12-20T05:46:01;6.20;99.90
37702;DHT22;23548;51.196;6.838;2023-12-20T05:48:27;6.10;99.90
37702;DHT22;23548;51.196;6.838;2023-12-20T05:50:53;6.10;99.90
37702;DHT22;23548;51.196;6.838;2023-12-20T05:53:18;6.10;99.90
37702;DHT22;23548;51.196;6.838;2023-12-20T05:55:44;6.10;99.90
37702;DHT22;23548;51.196;6.838;2023-12-20T05:58:10;6.20;99.90
37702;DHT22;23548;51.196;6.838;2023-12-20T06:00:36;6.20;99.90
37702;DHT22;23548;51.196;6.838;2023-12-20T06:03:01;6.30;99.90
37702;DHT22;23548;51.196;6.838;2023-12-20T06:05:27;6.30;99.90
37702;DHT22;23548;51.196;6.838;2023-12-20T06:07:53;6.30;99.90
37702;DHT22;23548;51.196;6.838;2023-12-20T06:10:20;6.30;99.90
37702;DHT22;23548;51.196;6.838;2023-12-20T06:12:45;6.40;99.90
37702;DHT22;23548;51.196;6.838;2023-12-20T06:15:14;6.40;99.90
37702;DHT22;23548;51.196;6.838;2023-12-20T06:17:39;6.40;99.90
37702;DHT22;23548;51.196;6.838;2023-12-20T06:20:06;6.50;99.90
37702;DHT22;23548;51.196;6.838;2023-12-20T06:22:34;6.50;99.90
37702;DHT22;23548;51.196;6.838;2023-12-20T06:25:00;6.50;99.90
37702;DHT22;23548;51.196;6.838;2023-12-20T06:27:25;6.50;99.90
37702;DHT22;23548;51.196;6.838;2023-12-20T06:29:51;6.60;99.90
37702;DHT22;23548;51.196;6.838;2023-12-20T06:32:17;6.60;99.90
37702;DHT22;23548;51.196;6.838;2023-12-20T06:34:43;6.60;99.90
37702;DHT22;23548;51.196;6.838;2023-12-20T06:37:08;6.60;99.90
37702;DHT22;23548;51.196;6.838;2023-12-20T06:39:34;6.70;99.90
37702;DHT22;23548;51.196;6.838;2023-12-20T06:42:00;6.70;99.90
37702;DHT22;23548;51.196;6.838;2023-12-20T06:44:26;6.70;99.90
37702;DHT22;23548;51.196;6.838;2023-12-20T06:46:51;6.70;99.90
37702;DHT22;23548;51.196;6.838;2023-12-20T06:49:17;6.70;99.90
37702;DHT22;23548;51.196;6.838;2023-12-20T06:51:44;6.70;99.90
37702;DHT22;23548;51.196;6.838;2023-12-20T06:54:09;6.70;99.90
37702;DHT22;23548;51.196;6.838;2023-12-20T06:56:35;6.70;99.90
37702;DHT22;23548;51.196;6.838;2023-12-20T06:59:01;6.70;99.90
37702;DHT22;23548;51.196;6.838;2023-12-20T07:01:26;6.80;99.90
37702;DHT22;23548;51.196;6.838;2023-12-20T07:03:52;6.80;99.90
37702;DHT22;23548;51.196;6.838;2023-12-20T07:06:18;6.80;99.90
37702;DHT22;23548;51.196;6.838;2023-12-20T07:08:44;6.80;99.90
37702;DHT22;23548;51.196;6.838;2023-12-20T07:11:10;6.80;99.90
37702;DHT22;23548;51.196;6.838;2023-12-20T07:13:36;6.80;99.90
37702;DHT22;23548;51.196;6.838;2023-12-20T07:16:01;6.80;99.90
37702;DHT22;23548;51.196;6.838;2023-12-20T07:18:27;6.80;99.90
37702;DHT22;23548;51.196;6.838;2023-12-20T07:20:53;6.80;99.90
37702;DHT22;23548;51.196;6.838;2023-12-20T07:23:20;6.80;99.90
37702;DHT22;23548;51.196;6.838;2023-12-20T07:25:47;6.80;99.90
37702;DHT22;23548;51.196;6.838;2023-12-20T07:28:13;6.90;99.90
37702;DHT22;23548;51.196;6.838;2023-12-20T07:30:39;6.80;99.90
37702;DHT22;23548;51.196;6.838;2023-12-20T07:33:04;6.90;99.90
37702;DHT22;23548;51.196;6.838;2023-12-20T07:35:30;6.90;99.90
37702;DHT22;23548;51.196;6.838;2023-12-20T07:37:56;6.90;99.90
37702;DHT22;23548;51.196;6.838;2023-12-20T07:40:22;6.90;99.90
37702;DHT22;23548;51.196;6.838;2023-12-20T07:42:49;6.90;99.90
37702;DHT22;23548;51.196;6.838;2023-12-20T07:45:15;6.90;99.90
37702;DHT22;23548;51.196;6.838;2023-12-20T07:47:41;7.00;99.90
37702;DHT22;23548;51.196;6.838;2023-12-20T07:50:06;7.00;99.90
37702;DHT22;23548;51.196;6.838;2023-12-20T07:52:32;7.00;99.90
37702;DHT22;23548;51.196;6.838;2023-12-20T07:54:58;7.00;99.90
37702;DHT22;23548;51.196;6.838;2023-12-20T07:57:24;7.00;99.90
37702;DHT22;23548;51.196;6.838;2023-12-20T07:59:49;7.00;99.90
37702;DHT22;23548;51.196;6.838;2023-12-20T08:02:15;7.10;99.90
37702;DHT22;23548;51.196;6.838;2023-12-20T08:04:41;7.10;99.90
37702;DHT22;23548;51.196;6.838;2023-12-20T08:07:09;7.10;99.90
37702;DHT22;23548;51.196;6.838;2023-12-20T08:09:35;7.10;99.90
37702;DHT22;23548;51.196;6.838;2023-12-20T08:12:02;7.10;99.90
37702;DHT22;23548;51.196;6.838;2023-12-20T08:14:28;7.10;99.90
37702;DHT22;23548;51.196;6.838;2023-12-20T08:16:54;7.10;99.90
37702;DHT22;23548;51.196;6.838;2023-12-20T08:19:19;7.10;99.90
37702;DHT22;23548;51.196;6.838;2023-12-20T08:21:45;7.10;99.90
37702;DHT22;23548;51.196;6.838;2023-12-20T08:24:14;7.10;99.90
37702;DHT22;23548;51.196;6.838;2023-12-20T08:26:40;7.20;99.90
37702;DHT22;23548;51.196;6.838;2023-12-20T08:29:05;7.20;99.90
37702;DHT22;23548;51.196;6.838;2023-12-20T08:31:31;7.20;99.90
37702;DHT22;23548;51.196;6.838;2023-12-20T08:33:57;7.10;99.90
37702;DHT22;23548;51.196;6.838;2023-12-20T08:36:22;7.10;99.90
37702;DHT22;23548;51.196;6.838;2023-12-20T08:38:49;7.10;99.90
37702;DHT22;23548;51.196;6.838;2023-12-20T08:41:16;7.10;99.90
37702;DHT22;23548;51.196;6.838;2023-12-20T08:43:42;7.20;99.90
37702;DHT22;23548;51.196;6.838;2023-12-20T08:46:08;7.10;99.90
37702;DHT22;23548;51.196;6.838;2023-12-20T08:48:37;7.10;99.90
37702;DHT22;23548;51.196;6.838;2023-12-20T08:51:04;7.20;99.90
37702;DHT22;23548;51.196;6.838;2023-12-20T08:53:29;7.10;99.90
37702;DHT22;23548;51.196;6.838;2023-12-20T08:55:55;7.10;99.90
37702;DHT22;23548;51.196;6.838;2023-12-20T08:58:21;7.20;99.90
37702;DHT22;23548;51.196;6.838;2023-12-20T09:00:47;7.20;99.90
37702;DHT22;23548;51.196;6.838;2023-12-20T09:03:12;7.20;99.90
37702;DHT22;23548;51.196;6.838;2023-12-20T09:05:38;7.20;99.90
37702;DHT22;23548;51.196;6.838;2023-12-20T09:08:04;7.20;99.90
37702;DHT22;23548;51.196;6.838;2023-12-20T09:10:30;7.20;99.90
37702;DHT22;23548;51.196;6.838;2023-12-20T09:12:56;7.10;99.90
37702;DHT22;23548;51.196;6.838;2023-12-20T09:15:26;7.20;99.90
37702;DHT22;23548;51.196;6.838;2023-12-20T09:17:53;7.20;99.90
37702;DHT22;23548;51.196;6.838;2023-12-20T09:20:19;7.20;99.90
37702;DHT22;23548;51.196;6.838;2023-12-20T09:22:45;7.20;99.90
37702;DHT22;23548;51.196;6.838;2023-12-20T09:25:11;7.20;99.90
37702;DHT22;23548;51.196;6.838;2023-12-20T09:27:38;7.20;99.90
37702;DHT22;23548;51.196;6.838;2023-12-20T09:30:04;7.20;99.90
37702;DHT22;23548;51.196;6.838;2023-12-20T09:32:31;7.20;99.90
37702;DHT22;23548;51.196;6.838;2023-12-20T09:34:57;7.30;99.90
37702;DHT22;23548;51.196;6.838;2023-12-20T09:37:26;7.30;99.90
37702;DHT22;23548;51.196;6.838;2023-12-20T09:39:51;7.30;99.90
37702;DHT22;23548;51.196;6.838;2023-12-20T09:42:24;7.30;99.90
37702;DHT22;23548;51.196;6.838;2023-12-20T09:44:55;7.20;99.90
37702;DHT22;23548;51.196;6.838;2023-12-20T09:47:24;7.30;99.90
37702;DHT22;23548;51.196;6.838;2023-12-20T09:49:51;7.30;99.90
37702;DHT22;23548;51.196;6.838;2023-12-20T09:52:18;7.30;99.90
37702;DHT22;23548;51.196;6.838;2023-12-20T09:54:44;7.30;99.90
37702;DHT22;23548;51.196;6.838;2023-12-20T09:57:11;7.40;99.90
37702;DHT22;23548;51.196;6.838;2023-12-20T09:59:36;7.40;99.90
37702;DHT22;23548;51.196;6.838;2023-12-20T10:02:04;7.40;99.90
37702;DHT22;23548;51.196;6.838;2023-12-20T10:04:32;7.40;99.90
37702;DHT22;23548;51.196;6.838;2023-12-20T10:07:02;7.50;99.90
37702;DHT22;23548;51.196;6.838;2023-12-20T10:09:31;7.50;99.90
37702;DHT22;23548;51.196;6.838;2023-12-20T10:11:57;7.50;99.90
37702;DHT22;23548;51.196;6.838;2023-12-20T10:14:24;7.50;99.90
37702;DHT22;23548;51.196;6.838;2023-12-20T10:16:49;7.60;99.90
37702;DHT22;23548;51.196;6.838;2023-12-20T10:19:19;7.50;99.90
37702;DHT22;23548;51.196;6.838;2023-12-20T10:21:45;7.50;99.90
37702;DHT22;23548;51.196;6.838;2023-12-20T10:24:17;7.50;99.90
37702;DHT22;23548;51.196;6.838;2023-12-20T10:26:43;7.50;99.90
37702;DHT22;23548;51.196;6.838;2023-12-20T10:29:10;7.60;99.90
37702;DHT22;23548;51.196;6.838;2023-12-20T10:31:36;7.60;99.90
37702;DHT22;23548;51.196;6.838;2023-12-20T10:34:04;7.50;99.90
37702;DHT22;23548;51.196;6.838;2023-12-20T10:36:32;7.50;99.90
37702;DHT22;23548;51.196;6.838;2023-12-20T10:38:58;7.50;99.90
37702;DHT22;23548;51.196;6.838;2023-12-20T10:41:32;7.50;99.90
37702;DHT22;23548;51.196;6.838;2023-12-20T10:44:02;7.50;99.90
37702;DHT22;23548;51.196;6.838;2023-12-20T10:46:29;7.50;99.90
37702;DHT22;23548;51.196;6.838;2023-12-20T10:48:56;7.50;99.90
37702;DHT22;23548;51.196;6.838;2023-12-20T10:51:23;7.60;99.90
37702;DHT22;23548;51.196;6.838;2023-12-20T10:53:53;7.50;99.90
37702;DHT22;23548;51.196;6.838;2023-12-20T10:56:19;7.60;99.90
37702;DHT22;23548;51.196;6.838;2023-12-20T10:58:47;7.60;99.90
37702;DHT22;23548;51.196;6.838;2023-12-20T11:01:14;7.60;99.90
37702;DHT22;23548;51.196;6.838;2023-12-20T11:03:44;7.70;99.90
37702;DHT22;23548;51.196;6.838;2023-12-20T11:06:33;7.70;99.90
37702;DHT22;23548;51.196;6.838;2023-12-20T11:09:26;7.70;99.90
37702;DHT22;23548;51.196;6.838;2023-12-20T11:17:09;7.80;99.90
37702;DHT22;23548;51.196;6.838;2023-12-20T11:22:25;7.70;99.90
37702;DHT22;23548;51.196;6.838;2023-12-20T11:24:52;7.70;99.90
37702;DHT22;23548;51.196;6.838;2023-12-20T11:27:19;7.70;99.90
37702;DHT22;23548;51.196;6.838;2023-12-20T11:29:52;7.70;99.90
37702;DHT22;23548;51.196;6.838;2023-12-20T11:35:27;7.70;99.90
37702;DHT22;23548;51.196;6.838;2023-12-20T11:37:46;7.60;99.90
37702;DHT22;23548;51.196;6.838;2023-12-20T11:40:17;7.60;99.90
37702;DHT22;23548;51.196;6.838;2023-12-20T11:42:45;7.60;99.90
37702;DHT22;23548;51.196;6.838;2023-12-20T11:45:15;7.60;99.90
37702;DHT22;23548;51.196;6.838;2023-12-20T11:47:46;7.60;99.90
37702;DHT22;23548;51.196;6.838;2023-12-20T11:50:12;7.70;99.90
37702;DHT22;23548;51.196;6.838;2023-12-20T11:52:38;7.70;99.90
37702;DHT22;23548;51.196;6.838;2023-12-20T11:55:07;7.70;99.90
37702;DHT22;23548;51.196;6.838;2023-12-20T11:57:33;7.70;99.90
37702;DHT22;23548;51.196;6.838;2023-12-20T11:59:59;7.70;99.90
37702;DHT22;23548;51.196;6.838;2023-12-20T12:02:25;7.80;99.90
37702;DHT22;23548;51.196;6.838;2023-12-20T12:04:51;7.80;99.90
37702;DHT22;23548;51.196;6.838;2023-12-20T12:07:17;8.00;99.90
37702;DHT22;23548;51.196;6.838;2023-12-20T12:09:43;8.10;99.90
37702;DHT22;23548;51.196;6.838;2023-12-20T12:12:11;8.20;99.90
37702;DHT22;23548;51.196;6.838;2023-12-20T12:14:38;8.30;99.90
37702;DHT22;23548;51.196;6.838;2023-12-20T12:17:04;8.20;99.90
37702;DHT22;23548;51.196;6.838;2023-12-20T12:19:30;8.20;99.90
37702;DHT22;23548;51.196;6.838;2023-12-20T12:22:14;8.20;99.90
37702;DHT22;23548;51.196;6.838;2023-12-20T12:24:45;8.10;99.90
37702;DHT22;23548;51.196;6.838;2023-12-20T12:27:14;8.10;99.90
37702;DHT22;23548;51.196;6.838;2023-12-20T12:30:05;8.00;99.90
37702;DHT22;23548;51.196;6.838;2023-12-20T12:32:35;8.00;99.90
37702;DHT22;23548;51.196;6.838;2023-12-20T12:35:03;7.90;99.90
37702;DHT22;23548;51.196;6.838;2023-12-20T12:37:33;7.90;99.90
37702;DHT22;23548;51.196;6.838;2023-12-20T12:40:04;7.90;99.90
37702;DHT22;23548;51.196;6.838;2023-12-20T12:42:37;7.90;99.90
37702;DHT22;23548;51.196;6.838;2023-12-20T12:45:03;7.90;99.90
37702;DHT22;23548;51.196;6.838;2023-12-20T12:47:30;7.90;99.90
37702;DHT22;23548;51.196;6.838;2023-12-20T12:49:56;7.90;99.90
37702;DHT22;23548;51.196;6.838;2023-12-20T12:52:21;7.90;99.90
37702;DHT22;23548;51.196;6.838;2023-12-20T12:54:48;7.90;99.90
37702;DHT22;23548;51.196;6.838;2023-12-20T12:57:15;7.90;99.90
37702;DHT22;23548;51.196;6.838;2023-12-20T12:59:42;8.00;99.90
37702;DHT22;23548;51.196;6.838;2023-12-20T13:02:08;8.00;99.90
37702;DHT22;23548;51.196;6.838;2023-12-20T13:04:33;7.90;99.90
37702;DHT22;23548;51.196;6.838;2023-12-20T13:06:59;7.80;99.90
37702;DHT22;23548;51.196;6.838;2023-12-20T13:09:25;7.80;99.90
37702;DHT22;23548;51.196;6.838;2023-12-20T13:11:51;7.70;99.90
37702;DHT22;23548;51.196;6.838;2023-12-20T13:14:17;7.70;99.90
37702;DHT22;23548;51.196;6.838;2023-12-20T13:16:42;7.50;99.90
37702;DHT22;23548;51.196;6.838;2023-12-20T13:19:08;7.50;99.90
37702;DHT22;23548;51.196;6.838;2023-12-20T13:21:35;7.50;99.90
37702;DHT22;23548;51.196;6.838;2023-12-20T13:24:01;7.40;99.90
37702;DHT22;23548;51.196;6.838;2023-12-20T13:26:27;7.40;99.90
37702;DHT22;23548;51.196;6.838;2023-12-20T13:28:54;7.50;99.90
37702;DHT22;23548;51.196;6.838;2023-12-20T13:31:20;7.50;99.90
37702;DHT22;23548;51.196;6.838;2023-12-20T13:33:46;7.50;99.90
37702;DHT22;23548;51.196;6.838;2023-12-20T13:36:12;7.50;99.90
37702;DHT22;23548;51.196;6.838;2023-12-20T13:38:38;7.50;99.90
37702;DHT22;23548;51.196;6.838;2023-12-20T13:41:04;7.50;99.90
37702;DHT22;23548;51.196;6.838;2023-12-20T13:43:31;7.50;99.90
37702;DHT22;23548;51.196;6.838;2023-12-20T13:45:58;7.50;99.90
37702;DHT22;23548;51.196;6.838;2023-12-20T13:48:24;7.60;99.90
37702;DHT22;23548;51.196;6.838;2023-12-20T13:50:50;7.60;99.90
37702;DHT22;23548;51.196;6.838;2023-12-20T13:53:16;7.60;99.90
37702;DHT22;23548;51.196;6.838;2023-12-20T13:55:41;7.50;99.90
37702;DHT22;23548;51.196;6.838;2023-12-20T13:58:07;7.40;99.90
37702;DHT22;23548;51.196;6.838;2023-12-20T14:00:35;7.40;99.90
37702;DHT22;23548;51.196;6.838;2023-12-20T14:03:03;7.40;99.90
37702;DHT22;23548;51.196;6.838;2023-12-20T14:05:29;7.40;99.90
37702;DHT22;23548;51.196;6.838;2023-12-20T14:07:55;7.40;99.90
37702;DHT22;23548;51.196;6.838;2023-12-20T14:10:23;7.50;99.90
37702;DHT22;23548;51.196;6.838;2023-12-20T14:12:53;7.50;99.90
37702;DHT22;23548;51.196;6.838;2023-12-20T14:15:19;7.50;99.90
37702;DHT22;23548;51.196;6.838;2023-12-20T14:17:44;7.60;99.90
37702;DHT22;23548;51.196;6.838;2023-12-20T14:20:11;7.60;99.90
37702;DHT22;23548;51.196;6.838;2023-12-20T14:22:39;7.70;99.90
37702;DHT22;23548;51.196;6.838;2023-12-20T14:25:11;7.70;99.90
37702;DHT22;23548;51.196;6.838;2023-12-20T14:27:38;7.70;99.90
37702;DHT22;23548;51.196;6.838;2023-12-20T14:30:04;7.70;99.90
37702;DHT22;23548;51.196;6.838;2023-12-20T14:32:31;7.80;99.90
37702;DHT22;23548;51.196;6.838;2023-12-20T14:34:57;7.80;99.90
37702;DHT22;23548;51.196;6.838;2023-12-20T14:37:23;7.80;99.90
37702;DHT22;23548;51.196;6.838;2023-12-20T14:39:49;7.80;99.90
37702;DHT22;23548;51.196;6.838;2023-12-20T14:42:14;7.80;99.90
37702;DHT22;23548;51.196;6.838;2023-12-20T14:44:41;7.80;99.90
37702;DHT22;23548;51.196;6.838;2023-12-20T14:47:07;7.80;99.90
37702;DHT22;23548;51.196;6.838;2023-12-20T14:49:33;7.90;99.90
37702;DHT22;23548;51.196;6.838;2023-12-20T14:51:59;7.90;99.90
37702;DHT22;23548;51.196;6.838;2023-12-20T14:54:25;7.90;99.90
37702;DHT22;23548;51.196;6.838;2023-12-20T14:56:51;7.90;99.90
37702;DHT22;23548;51.196;6.838;2023-12-20T14:59:16;7.90;99.90
37702;DHT22;23548;51.196;6.838;2023-12-20T15:01:45;7.90;99.90
37702;DHT22;23548;51.196;6.838;2023-12-20T15:04:11;8.00;99.90
37702;DHT22;23548;51.196;6.838;2023-12-20T15:06:37;8.00;99.90
37702;DHT22;23548;51.196;6.838;2023-12-20T15:09:03;8.00;99.90
37702;DHT22;23548;51.196;6.838;2023-12-20T15:11:31;8.00;99.90
37702;DHT22;23548;51.196;6.838;2023-12-20T15:13:57;8.10;99.90
37702;DHT22;23548;51.196;6.838;2023-12-20T15:16:25;8.00;99.90
37702;DHT22;23548;51.196;6.838;2023-12-20T15:18:52;8.10;99.90
37702;DHT22;23548;51.196;6.838;2023-12-20T15:21:19;8.10;99.90
37702;DHT22;23548;51.196;6.838;2023-12-20T15:23:44;8.00;99.90
37702;DHT22;23548;51.196;6.838;2023-12-20T15:26:19;8.00;99.90
37702;DHT22;23548;51.196;6.838;2023-12-20T15:28:45;8.00;99.90
37702;DHT22;23548;51.196;6.838;2023-12-20T15:31:11;8.00;99.90
37702;DHT22;23548;51.196;6.838;2023-12-20T15:33:39;8.00;99.90
37702;DHT22;23548;51.196;6.838;2023-12-20T15:36:05;8.10;99.90
37702;DHT22;23548;51.196;6.838;2023-12-20T15:38:31;8.10;99.90
37702;DHT22;23548;51.196;6.838;2023-12-20T15:40:56;8.10;99.90
37702;DHT22;23548;51.196;6.838;2023-12-20T15:43:22;8.10;99.90
37702;DHT22;23548;51.196;6.838;2023-12-20T15:45:48;8.10;99.90
37702;DHT22;23548;51.196;6.838;2023-12-20T15:48:14;8.10;99.90
37702;DHT22;23548;51.196;6.838;2023-12-20T15:50:44;8.10;99.90
37702;DHT22;23548;51.196;6.838;2023-12-20T15:53:10;8.10;99.90
37702;DHT22;23548;51.196;6.838;2023-12-20T15:55:36;8.00;99.90
37702;DHT22;23548;51.196;6.838;2023-12-20T15:58:01;8.00;99.90